Terminal Aerodrome Forecast
Issued by NWS

Home | Current Version | Previous Version | Text Only | Print | Product List | Glossary On
Versions: 1 2 3 4 5 6 7 8 9 10 11 12 13 14 15 16 17 18 19 20 21 22 23 24 25 26 27 28 29 30 31 32
000
FTUS41 KBOX 011450 AAB
TAFBAF
TAF AMD
KBAF 011450Z 0115/0212 01007KT 6SM -RA BR OVC008
     FM011700 01008KT 6SM BR OVC020
     FM020300 02007KT 3SM BR OVC008=

USA.gov is the U.S. government's official web portal to all federal, state and local government web resources and services.